CheckWX is a tool to help pilots better visualize weather data.  It is not intended as a substitute for an official pre-flight weather briefing.

22:04:36 UTC

KTWF METAR
Joslin Field - Magic Valley Regional Airport
Twin Falls, Idaho, USA
Current

11 hours ago

KTWF 191053Z AUTO 21004KT 10SM OVC075 10/04 A2992 RMK AO2 SLP099 T01000039
Observed
Sep-19 @ 10:53 UTC
Wind
  • 210° at 4 KTS
Visibility
10 SM
Flight Rules
VFR
Cloud Levels
  • Overcast at 7,500' AGL
Temperature
10°C / 50°F
Dewpoint
C / 39°F
Humidity
67%
Altimeter
29.92" Hg
Pressure
1013.22 hPa
Previous

12 hours ago

KTWF 190953Z AUTO 15005KT 10SM OVC075 09/04 A2993 RMK AO2 SLP099 T00890044
Observed
Sep-19 @ 09:53 UTC
Wind
  • 150° at 5 KTS
Visibility
10 SM
Flight Rules
VFR
Cloud Levels
  • Overcast at 7,500' AGL
Temperature
C / 48°F
Dewpoint
C / 39°F
Humidity
71%
Altimeter
29.93" Hg
Pressure
1013.52 hPa
Previous

13 hours ago

KTWF 190853Z AUTO 18008KT 10SM BKN085 08/04 A2994 RMK AO2 SLP100 T00830039 58005
Observed
Sep-19 @ 08:53 UTC
Wind
  • 180° at 8 KTS
Visibility
10 SM
Flight Rules
VFR
Cloud Levels
  • Broken at 8,500' AGL
Temperature
C / 46°F
Dewpoint
C / 39°F
Humidity
76%
Altimeter
29.94" Hg
Pressure
1013.92 hPa